Latest Weather Observations for Wilcannia Airport

IDN60801

Issued at 4:32 am EDT Wednesday 29 March 2017 (issued every 30 minutes, with the page automatically refreshed every 10 minutes)

About weather observations | Map of weather stations | Latest weather observations for NSW | Other Formats
Station Details ID: 046012 Name: WILCANNIA AERODROME AWS Lat: -31.52 Lon: 143.38 Height: 94.3 m
Data from the previous 72 hours. | See also: Recent months at Wilcannia Airport
Date/Time
EDT
Temp
°C
App
Temp
°C
Dew
Point
°C
Rel
Hum
%
Delta-T
°C
Wind Press
QNH
hPa
Press
MSL
hPa
Rain since
9am
mm
Dir  Spd
km/h
Gust
km/h
Spd
kts
Gust
kts
29/04:30am 13.1 9.3 -0.5 39 5.6 SW 9 11 5 6 1010.4 1010.0 0.0
29/04:00am 13.4 9.3 -0.3 39 5.7 SW 11 13 6 7 1010.7 1010.3 0.0
29/03:30am 13.4 9.6 -1.0 37 5.9 SSW 9 11 5 6 1010.8 1010.4 0.0
29/03:00am 13.8 10.0 -0.6 37 6.0 SSW 9 9 5 5 1011.0 1010.6 0.0
29/02:30am 13.3 9.6 -0.3 39 5.6 SSE 9 11 5 6 1011.0 1010.6 0.0
29/02:00am 14.3 10.5 -0.9 35 6.3 S 9 11 5 6 1011.1 1010.7 0.0
29/01:30am 13.8 10.2 -1.8 34 6.3 SSW 7 9 4 5 1011.5 1011.1 0.0
29/01:00am 14.0 10.0 0.3 39 5.8 S 11 13 6 7 1011.9 1011.5 0.0
29/12:30am 13.8 9.8 -2.2 33 6.4 S 9 9 5 5 1012.2 1011.8 0.0
29/12:00am 16.0 12.2 -0.7 32 7.0 SSW 9 9 5 5 1012.5 1012.1 0.0
 
Date/Time
EDT
Temp
°C
App
Temp
°C
Dew
Point
°C
Rel
Hum
%
Delta-T
°C
Wind Press
QNH
hPa
Press
MSL
hPa
Rain since
9am
mm
Dir  Spd
km/h
Gust
km/h
Spd
kts
Gust
kts
28/11:30pm 15.1 11.3 -1.0 33 6.7 SSW 9 11 5 6 1012.6 1012.2 0.0
28/11:00pm 15.9 11.9 -2.1 29 7.4 SSW 9 11 5 6 1012.7 1012.3 0.0
28/10:30pm 18.2 14.2 0.8 31 7.7 SSW 11 13 6 7 1012.9 1012.4 0.0
28/10:00pm 18.1 14.2 -1.7 26 8.3 SSW 9 9 5 5 1012.5 1012.1 0.0
28/09:30pm 20.7 16.3 0.5 26 9.1 SSW 13 13 7 7 1012.4 1012.0 0.0
28/09:00pm 21.4 17.3 0.0 24 9.6 SSW 11 13 6 7 1012.2 1011.8 0.0
28/08:30pm 23.4 19.3 -0.1 21 10.7 S 11 13 6 7 1012.0 1011.6 0.0
28/08:00pm 25.0 20.5 -0.2 19 11.6 SSW 13 17 7 9 1011.8 1011.4 0.0
28/07:30pm 27.3 22.4 -0.7 16 13.0 S 15 20 8 11 1011.6 1011.2 0.0
28/07:00pm 29.0 23.2 -0.2 15 13.9 S 20 28 11 15 1011.5 1011.1 0.0
28/06:30pm 30.0 24.2 -0.4 14 14.5 SSW 20 32 11 17 1011.3 1010.9 0.0
28/06:00pm 30.8 24.3 0.2 14 14.8 SSW 24 30 13 16 1011.2 1010.8 0.0
28/05:30pm 31.7 25.7 1.0 14 15.1 SSW 22 32 12 17 1011.2 1010.8 0.0
28/05:00pm 31.6 26.0 0.9 14 15.1 SSW 20 30 11 16 1011.2 1010.8 0.0
28/04:30pm 31.6 26.1 0.9 14 15.1 SSW 19 30 10 16 1011.4 1011.0 0.0
28/04:00pm 31.6 26.0 0.9 14 15.1 S 20 30 11 16 1011.7 1011.3 0.0
28/03:30pm 30.6 24.5 0.1 14 14.7 S 22 33 12 18 1012.1 1011.7 0.0
28/03:00pm 30.3 24.6 0.8 15 14.4 S 20 28 11 15 1012.2 1011.8 0.0
28/02:30pm 29.5 24.1 1.1 16 13.8 SSE 19 30 10 16 1012.5 1012.1 0.0
28/02:00pm 29.2 24.0 2.5 18 13.3 SSE 19 28 10 15 1013.1 1012.6 0.0
28/01:30pm 27.9 22.9 3.6 21 12.2 SSE 19 28 10 15 1013.7 1013.2 0.0
28/01:00pm 27.6 22.7 4.0 22 11.9 SSE 19 30 10 16 1014.3 1013.8 0.0
28/12:30pm 26.9 21.9 4.6 24 11.4 SSE 20 28 11 15 1014.7 1014.3 0.0
28/12:00pm 25.8 20.1 4.9 26 10.6 SSE 24 32 13 17 1015.1 1014.7 0.0
28/11:30am 25.4 20.1 5.1 27 10.3 SSE 22 32 12 17 1015.3 1014.9 0.0
28/11:00am 23.7 18.0 5.1 30 9.4 SE 24 33 13 18 1015.5 1015.1 0.0
28/10:30am 23.2 17.7 6.1 33 8.7 SSE 24 35 13 19 1015.8 1015.4 0.0
28/10:00am 21.9 16.0 5.8 35 8.1 SSE 26 35 14 19 1015.6 1015.2 0.0
28/09:30am 21.3 15.4 5.6 36 7.8 SSE 26 37 14 20 1015.6 1015.2 0.0
28/09:00am 20.6 15.6 6.5 40 7.1 SSE 22 32 12 17 1015.1 1014.7 0.0
28/08:30am 19.3 15.8 7.1 45 6.2 SSE 15 24 8 13 1014.8 1014.4 0.0
28/08:00am 18.3 15.2 7.1 48 5.6 S 13 20 7 11 1014.4 1013.9 0.0
28/07:30am 18.0 14.9 7.1 49 5.5 SSE 13 17 7 9 1013.9 1013.4 0.0
28/07:00am 18.4 15.7 7.2 48 5.7 SSE 11 15 6 8 1013.5 1013.0 0.0
28/06:30am 18.8 15.7 7.3 47 5.8 SSE 13 19 7 10 1013.1 1012.6 0.0
28/06:00am 19.3 16.2 7.1 45 6.2 SSE 13 19 7 10 1012.7 1012.3 0.0
28/05:30am 19.7 16.6 7.1 44 6.4 SSE 13 20 7 11 1012.6 1012.2 0.0
28/05:00am 20.1 16.4 6.5 41 6.9 SSE 15 20 8 11 1012.7 1012.3 0.0
28/04:30am 20.6 16.9 6.5 40 7.1 SSE 15 22 8 12 1012.9 1012.4 0.0
28/04:00am 21.2 17.1 6.3 38 7.5 SSE 17 26 9 14 1013.2 1012.7 0.0
28/03:30am 21.7 17.5 5.6 35 8.1 SSE 17 24 9 13 1013.3 1012.8 0.0
28/03:00am 22.3 16.8 5.7 34 8.4 SSE 24 33 13 18 1013.5 1013.0 0.0
28/02:30am 23.0 17.9 5.9 33 8.7 SE 22 35 12 19 1013.7 1013.2 0.0
28/02:00am 23.5 18.2 6.7 34 8.7 SSE 24 35 13 19 1014.0 1013.5 0.0
28/01:30am 24.2 19.6 6.5 32 9.2 SSE 20 30 11 16 1014.0 1013.5 0.0
28/01:00am 24.8 19.1 6.5 31 9.5 SSE 26 43 14 23 1014.0 1013.5 0.0
28/12:30am 25.6 20.2 8.1 33 9.4 SSE 26 35 14 19 1013.8 1013.3 0.0
28/12:00am 26.4 21.2 8.8 33 9.6 S 26 37 14 20 1013.5 1013.0 0.0
 
Date/Time
EDT
Temp
°C
App
Temp
°C
Dew
Point
°C
Rel
Hum
%
Delta-T
°C
Wind Press
QNH
hPa
Press
MSL
hPa
Rain since
9am
mm
Dir  Spd
km/h
Gust
km/h
Spd
kts
Gust
kts
27/11:30pm 27.1 21.9 10.3 35 9.4 S 28 41 15 22 1013.2 1012.7 0.0
27/11:00pm 27.8 22.4 10.9 35 9.6 S 30 44 16 24 1012.7 1012.3 0.0
27/10:37pm 28.5 22.5 10.7 33 10.1 S 33 52 18 28 1012.4 1012.0 0.0
27/10:30pm 28.8 22.5 10.9 33 10.2 S 35 52 19 28 1012.2 1011.8 0.0
27/10:00pm 30.1 25.1 11.1 31 11.0 S 28 43 15 23 1011.6 1011.2 0.0
27/09:30pm 31.1 26.6 11.5 30 11.4 S 26 39 14 21 1010.9 1010.5 0.0
27/09:00pm 31.8 27.2 11.0 28 12.1 S 26 37 14 20 1010.0 1009.6 0.0
27/08:30pm 32.7 28.9 11.3 27 12.5 SSW 22 33 12 18 1009.5 1009.1 0.0
27/08:00pm 33.2 29.4 11.1 26 13.0 SSW 22 32 12 17 1009.0 1008.6 0.0
27/07:30pm 33.9 29.3 11.1 25 13.4 SSW 26 37 14 20 1008.7 1008.3 0.0
27/07:00pm 34.7 29.8 11.2 24 13.9 SSW 28 43 15 23 1008.3 1007.9 0.0
27/06:30pm 35.3 29.4 11.0 23 14.3 SSW 33 52 18 28 1008.0 1007.6 0.0
27/06:24pm 35.3 29.4 11.0 23 14.3 SSW 33 52 18 28 1007.9 1007.5 0.0
27/06:00pm 36.3 30.4 11.2 22 14.9 SSW 33 48 18 26 1007.6 1007.2 0.0
27/05:30pm 37.9 31.6 11.1 20 16.0 SW 35 52 19 28 1007.2 1006.8 0.0
27/05:00pm 39.3 32.3 11.4 19 16.9 SW 39 57 21 31 1006.9 1006.5 0.0
27/04:35pm 41.5 35.9 8.6 14 19.2 W 28 46 15 25 1006.2 1005.8 0.0
27/04:30pm 41.6 35.6 8.7 14 19.3 W 30 44 16 24 1006.2 1005.8 0.0
27/04:00pm 42.4 37.4 8.2 13 20.0 W 24 37 13 20 1006.4 1006.0 0.0
27/03:36pm 43.2 37.6 8.8 13 20.3 WNW 28 48 15 26 1006.6 1006.2 0.0
27/03:30pm 43.1 38.3 8.8 13 20.2 WNW 24 37 13 20 1006.6 1006.2 0.0
27/03:00pm 42.9 37.6 8.6 13 20.2 NW 26 35 14 19 1007.0 1006.6 0.0
27/02:48pm 42.4 36.7 8.2 13 19.9 NW 28 43 15 23 1007.2 1006.8 0.0
27/02:30pm 42.5 38.6 9.4 14 19.6 NW 20 33 11 18 1007.4 1007.0 0.0
27/02:00pm 42.4 36.9 9.3 14 19.6 NNW 28 48 15 26 1008.1 1007.7 0.0
27/01:53pm 41.4 36.0 9.6 15 18.8 NNW 28 48 15 26 1008.2 1007.8 0.0
27/01:30pm 41.2 36.0 10.4 16 18.4 NNW 28 39 15 21 1008.9 1008.5 0.0
27/01:00pm 40.6 35.6 10.8 17 17.9 NNW 28 41 15 22 1009.4 1009.0 0.0
27/12:30pm 39.2 35.3 12.1 20 16.5 N 24 37 13 20 1009.9 1009.5 0.0
27/12:00pm 38.2 34.5 12.7 21 15.6 N 24 35 13 19 1010.4 1010.0 0.0
27/11:30am 36.8 33.2 12.9 24 14.6 N 24 35 13 19 1010.8 1010.4 0.0
27/11:00am 35.6 31.6 13.1 25 13.7 N 26 39 14 21 1011.1 1010.7 0.0
27/10:30am 34.3 30.4 13.2 28 12.8 NNE 26 35 14 19 1011.2 1010.8 0.0
27/10:00am 32.6 28.1 13.8 32 11.5 NNE 30 43 16 23 1011.3 1010.9 0.0
27/09:30am 31.7 28.6 14.4 35 10.6 NNE 24 33 13 18 1011.4 1011.0 0.0
27/09:00am 30.0 27.0 14.9 39 9.3 NNE 24 32 13 17 1011.3 1010.9 0.0
27/08:30am 28.0 26.8 15.0 45 7.9 NE 15 20 8 11 1011.1 1010.7 0.0
27/08:00am 25.8 24.3 14.3 49 6.9 NE 15 17 8 9 1010.8 1010.4 0.0
27/07:30am 24.9 23.4 14.1 51 6.4 NE 15 17 8 9 1010.6 1010.2 0.0
27/07:00am 24.6 23.0 12.9 48 6.8 NE 13 15 7 8 1010.3 1009.9 0.0
27/06:30am 24.1 22.1 11.4 45 7.2 NE 13 15 7 8 1010.1 1009.7 0.0
27/06:00am 24.3 22.1 10.9 43 7.5 NE 13 15 7 8 1009.9 1009.5 0.0
27/05:30am 24.4 21.7 10.3 41 7.8 ENE 15 15 8 8 1009.7 1009.3 0.0
27/05:00am 25.3 22.6 10.4 39 8.3 NE 15 17 8 9 1009.7 1009.3 0.0
27/04:30am 25.9 22.9 10.5 38 8.6 NE 17 19 9 10 1009.8 1009.4 0.0
27/04:00am 26.6 23.8 9.9 35 9.3 NE 15 19 8 10 1009.9 1009.5 0.0
27/03:30am 26.5 24.0 11.0 38 8.8 NE 15 17 8 9 1010.0 1009.6 0.0
27/03:00am 25.7 23.5 9.5 36 8.9 NE 11 13 6 7 1010.2 1009.8 0.0
27/02:30am 26.4 23.9 9.7 35 9.3 ENE 13 13 7 7 1010.4 1010.0 0.0
27/02:00am 27.6 25.2 9.9 33 9.9 ENE 13 15 7 8 1010.7 1010.3 0.0
27/01:30am 28.6 25.9 10.3 32 10.4 ENE 15 19 8 10 1010.8 1010.4 0.0
27/01:00am 28.0 25.1 9.8 32 10.2 ENE 15 17 8 9 1011.0 1010.6 0.0
27/12:30am 28.5 26.0 9.7 31 10.5 E 13 15 7 8 1011.1 1010.7 0.0
27/12:00am 28.4 25.9 9.6 31 10.5 ENE 13 15 7 8 1011.3 1010.9 0.0
 
Date/Time
EDT
Temp
°C
App
Temp
°C
Dew
Point
°C
Rel
Hum
%
Delta-T
°C
Wind Press
QNH
hPa
Press
MSL
hPa
Rain since
9am
mm
Dir  Spd
km/h
Gust
km/h
Spd
kts
Gust
kts
26/11:30pm 28.7 26.1 9.4 30 10.8 ESE 13 15 7 8 1011.5 1011.1 0.0
26/11:00pm 29.3 26.7 9.4 29 11.2 ENE 13 13 7 7 1011.4 1011.0 0.0
26/10:30pm 29.5 27.2 9.1 28 11.4 ENE 11 13 6 7 1011.4 1011.0 0.0
26/10:00pm 30.3 28.1 9.2 27 11.8 ESE 11 13 6 7 1011.1 1010.7 0.0
26/09:30pm 31.3 29.1 9.5 26 12.3 E 11 13 6 7 1010.9 1010.5 0.0
26/09:00pm 31.9 29.3 9.4 25 12.8 ESE 13 13 7 7 1010.6 1010.2 0.0
26/08:30pm 32.5 30.7 9.3 24 13.2 ESE 9 11 5 6 1010.3 1009.9 0.0
26/08:00pm 33.7 31.4 9.0 22 14.1 ESE 11 13 6 7 1010.0 1009.6 0.0
26/07:30pm 36.1 34.3 9.6 20 15.4 SE 9 11 5 6 1009.6 1009.2 0.0
26/07:00pm 37.9 35.9 8.6 17 16.9 ESE 9 13 5 7 1009.3 1008.9 0.0
26/06:30pm 38.6 36.1 8.3 16 17.4 SSE 11 15 6 8 1009.2 1008.8 0.0
26/06:00pm 39.2 37.6 8.8 16 17.7 ENE 7 17 4 9 1009.0 1008.6 0.0
26/05:30pm 40.0 38.2 9.4 16 18.0 WSW 9 13 5 7 1009.0 1008.6 0.0
26/05:00pm 40.3 39.1 9.6 16 18.1 N 6 13 3 7 1009.0 1008.6 0.0
26/04:30pm 39.6 37.7 9.1 16 17.8 ESE 9 19 5 10 1009.2 1008.8 0.0
26/04:00pm 39.4 37.1 8.9 16 17.8 SSE 11 24 6 13 1009.5 1009.1 0.0
26/03:30pm 39.4 37.5 8.9 16 17.7 N 9 17 5 9 1009.8 1009.4 0.0
26/03:00pm 39.1 37.3 9.6 17 17.3 N 9 17 5 9 1010.2 1009.8 0.0
26/02:30pm 38.7 36.1 9.3 17 17.2 E 13 19 7 10 1010.7 1010.3 0.0
26/02:00pm 38.1 36.0 9.6 18 16.7 NW 11 17 6 9 1011.2 1010.8 0.0
26/01:30pm 38.2 36.5 11.3 20 16.1 NNW 11 15 6 8 1011.7 1011.3 0.0
26/01:00pm 36.9 35.1 11.0 21 15.4 ENE 11 19 6 10 1012.2 1011.8 0.0
26/12:30pm 36.2 35.6 12.4 24 14.4 ENE 7 17 4 9 1012.5 1012.1 0.0
26/12:00pm 35.8 34.4 13.3 26 13.8 NE 13 20 7 11 1013.0 1012.5 0.0
26/11:30am 35.0 34.1 13.8 28 13.0 ENE 11 17 6 9 1013.4 1012.9 0.0
26/11:00am 34.2 33.4 14.1 29 12.4 ENE 11 17 6 9 1013.4 1012.9 0.0
26/10:30am 33.0 32.7 15.5 35 10.9 ENE 11 15 6 8 1013.5 1013.0 0.0
26/10:00am 31.0 31.2 15.8 40 9.5 ENE 9 11 5 6 1013.4 1012.9 0.0
26/09:30am 29.9 30.6 16.0 43 8.7 E 7 13 4 7 1013.4 1012.9 0.0
26/09:00am 27.4 28.6 13.7 43 8.2 CALM 0 4 0 2 1013.2 1012.7 0.0
26/08:30am 25.0 24.8 13.5 48 6.8 SSW 7 9 4 5 1013.1 1012.6 0.0
26/08:00am 22.5 21.6 12.7 54 5.6 WSW 9 9 5 5 1012.7 1012.3 0.0
26/07:30am 22.2 21.2 12.2 53 5.7 WSW 9 9 5 5 1012.5 1012.1 0.0
26/07:00am 22.6 21.5 12.0 51 6.0 WSW 9 11 5 6 1012.2 1011.8 0.0
26/06:30am 23.4 22.9 12.7 51 6.2 S 7 7 4 4 1011.8 1011.4 0.0
26/06:00am 23.8 23.7 12.1 48 6.7 S 4 7 2 4 1011.5 1011.1 0.0
26/05:30am 24.9 24.0 12.5 46 7.2 SE 9 13 5 7 1011.2 1010.8 0.0
26/05:00am 25.9 24.4 13.1 45 7.5 ESE 13 17 7 9 1010.8 1010.4 0.0

Other Formats:

Comma delimited format used in spreadsheet applications
http://www.bom.gov.au/fwo/IDN60801/IDN60801.95695.axf

JavaScript Object Notation format (JSON) in row-major order
http://www.bom.gov.au/fwo/IDN60801/IDN60801.95695.json